Time;durP1;ratioP1;P1;durP2;ratioP2;P2;SDS_P1;SDS_P2;PMS_P1;PMS_P2;Temp;Humidity;BMP_temperature;BMP_pressure;BME280_temperature;BME280_humidity;BME280_pressure;Samples;Min_cycle;Max_cycle;Signal;HPM_P1;HPM_P2
2023/09/26 00:02:00;;;;;;;7.25;5.97;;;;;;;-144.32;100.00;68061.97;10187205;29;20043;-78
2023/09/26 00:07:02;;;;;;;6.68;5.97;;;;;;;-144.32;100.00;68061.97;10199118;29;20051;-77
2023/09/26 00:12:04;;;;;;;6.05;5.43;;;;;;;-144.32;100.00;68061.97;10175921;29;20055;-76
2023/09/26 00:17:05;;;;;;;7.38;6.07;;;;;;;-144.32;100.00;68061.97;10147878;29;20048;-77
2023/09/26 00:22:06;;;;;;;8.43;6.07;;;;;;;-144.32;100.00;68061.97;10166286;29;20055;-76
2023/09/26 00:27:07;;;;;;;7.78;6.45;;;;;;;-144.32;100.00;68061.97;10150206;29;20052;-77
2023/09/26 00:32:08;;;;;;;8.07;6.40;;;;;;;-144.32;100.00;68061.97;10153215;28;20051;-78
2023/09/26 00:37:10;;;;;;;7.72;6.80;;;;;;;-144.32;100.00;68061.97;10173658;28;20476;-77
2023/09/26 00:42:10;;;;;;;7.57;6.68;;;;;;;-144.32;100.00;68061.97;10145267;29;20079;-77
2023/09/26 00:47:12;;;;;;;8.30;7.07;;;;;;;-144.32;100.00;68061.97;10164833;29;20048;-78
2023/09/26 00:52:12;;;;;;;8.48;6.78;;;;;;;-144.32;100.00;68061.97;10160707;29;20052;-77
2023/09/26 00:57:14;;;;;;;7.60;6.80;;;;;;;-144.32;100.00;68061.97;10167340;29;20123;-79
2023/09/26 01:02:15;;;;;;;7.22;5.97;;;;;;;-144.32;100.00;68061.97;10172426;29;20048;-77
2023/09/26 01:07:18;;;;;;;8.10;6.30;;;;;;;-144.32;100.00;68061.97;10177903;29;20043;-78
2023/09/26 01:12:19;;;;;;;7.05;6.18;;;;;;;-144.32;100.00;68061.97;10182700;29;20070;-77
2023/09/26 01:17:20;;;;;;;7.22;6.20;;;;;;;-144.32;100.00;68061.97;10167571;29;20119;-77
2023/09/26 01:22:25;;;;;;;7.82;5.88;;;;;;;-144.32;100.00;68061.97;10166706;29;20054;-78
2023/09/26 01:27:26;;;;;;;8.00;6.72;;;;;;;-144.32;100.00;68061.97;10167562;29;20056;-78
2023/09/26 01:32:26;;;;;;;8.55;6.75;;;;;;;-144.32;100.00;68061.97;10182666;29;20051;-78
2023/09/26 01:37:27;;;;;;;7.38;6.18;;;;;;;-144.32;100.00;68061.97;10185251;29;20693;-77
2023/09/26 01:42:27;;;;;;;7.75;6.18;;;;;;;-144.32;100.00;68061.97;10168055;29;20162;-78
2023/09/26 01:47:51;;;;;;;7.32;6.47;;;;;;;-144.32;100.00;68061.97;10189265;29;20936;-77
2023/09/26 01:52:52;;;;;;;6.55;5.95;;;;;;;-144.32;100.00;68061.97;10163088;29;20066;-78
2023/09/26 01:57:53;;;;;;;7.53;6.40;;;;;;;-144.32;100.00;68061.97;10168432;29;20055;-78
2023/09/26 02:02:53;;;;;;;8.35;6.55;;;;;;;-144.32;100.00;68061.97;10171628;29;20452;-78
2023/09/26 02:07:55;;;;;;;7.00;6.25;;;;;;;-144.32;100.00;68061.97;10195922;29;20127;-77
2023/09/26 02:12:56;;;;;;;6.82;5.97;;;;;;;-144.32;100.00;68061.97;10193835;29;20071;-76
2023/09/26 02:17:56;;;;;;;8.02;6.45;;;;;;;-144.32;100.00;68061.97;10174027;29;20048;-77
2023/09/26 02:22:58;;;;;;;8.82;6.25;;;;;;;-144.32;100.00;68061.97;10194589;29;20050;-78
2023/09/26 02:27:59;;;;;;;6.75;6.10;;;;;;;-144.32;100.00;68061.97;10170245;29;20051;-79
2023/09/26 02:32:59;;;;;;;8.05;6.53;;;;;;;-144.32;100.00;68061.97;10154645;29;20051;-78
2023/09/26 02:38:00;;;;;;;10.95;6.97;;;;;;;-144.32;100.00;68061.97;10170020;29;20052;-77
2023/09/26 02:43:00;;;;;;;6.50;5.40;;;;;;;-144.32;100.00;68061.97;10166864;29;20052;-76
2023/09/26 02:48:04;;;;;;;6.68;6.00;;;;;;;-144.32;100.00;68061.97;10179957;29;20206;-77
2023/09/26 02:53:05;;;;;;;6.07;5.47;;;;;;;-144.32;100.00;68061.97;10181150;29;20047;-77
2023/09/26 02:58:06;;;;;;;5.72;5.18;;;;;;;-144.32;100.00;68061.97;10181088;29;20446;-76
2023/09/26 03:03:07;;;;;;;6.20;5.35;;;;;;;-144.32;100.00;68061.97;10179885;29;20078;-77
2023/09/26 03:08:08;;;;;;;7.05;5.50;;;;;;;-144.32;100.00;68061.97;10159494;29;20051;-76
2023/09/26 03:13:08;;;;;;;5.70;5.07;;;;;;;-144.32;100.00;68061.97;10177898;29;20045;-77
2023/09/26 03:18:09;;;;;;;7.10;5.20;;;;;;;-144.32;100.00;68061.97;10167537;28;20059;-77
2023/09/26 03:23:09;;;;;;;5.63;5.03;;;;;;;-144.32;100.00;68061.97;10172287;28;20070;-78
2023/09/26 03:28:10;;;;;;;5.60;4.97;;;;;;;-144.32;100.00;68061.97;10131413;29;20727;-78
2023/09/26 03:33:10;;;;;;;5.75;4.95;;;;;;;-144.32;100.00;68061.97;10179960;29;20537;-78
2023/09/26 03:38:11;;;;;;;7.70;5.15;;;;;;;-144.32;100.00;68061.97;10169397;29;20401;-77
2023/09/26 03:43:11;;;;;;;6.78;5.70;;;;;;;-144.32;100.00;68061.97;10170546;29;20054;-78
2023/09/26 03:48:12;;;;;;;6.70;6.00;;;;;;;-144.32;100.00;68061.97;10166847;29;20045;-78
2023/09/26 03:53:13;;;;;;;7.25;6.13;;;;;;;-144.32;100.00;68061.97;10170361;29;20329;-76
2023/09/26 03:58:14;;;;;;;7.38;6.40;;;;;;;-144.32;100.00;68061.97;10183762;29;20051;-78
2023/09/26 04:03:15;;;;;;;7.88;5.63;;;;;;;-144.32;100.00;68061.97;10165139;29;20060;-78
2023/09/26 04:08:15;;;;;;;6.07;5.47;;;;;;;-144.32;100.00;68061.97;10191223;29;20048;-77
2023/09/26 04:13:16;;;;;;;7.47;6.18;;;;;;;-144.32;100.00;68061.97;10165441;29;20055;-77
2023/09/26 04:18:16;;;;;;;9.18;5.88;;;;;;;-144.32;100.00;68061.97;10179215;29;20062;-77
2023/09/26 04:23:17;;;;;;;7.82;7.03;;;;;;;-144.32;100.00;68061.97;10166937;29;20098;-76
2023/09/26 04:28:18;;;;;;;8.48;6.10;;;;;;;-144.32;100.00;68061.97;10177388;28;20048;-75
2023/09/26 04:33:18;;;;;;;6.97;5.82;;;;;;;-144.32;100.00;68061.97;10159986;29;20048;-77
2023/09/26 04:38:20;;;;;;;7.00;6.30;;;;;;;-144.32;100.00;68061.97;10172427;29;20036;-76
2023/09/26 04:43:21;;;;;;;8.35;5.78;;;;;;;-144.32;100.00;68061.97;10178672;29;20047;-74
2023/09/26 04:48:21;;;;;;;7.75;6.78;;;;;;;-144.32;100.00;68061.97;10149705;29;20055;-76
2023/09/26 04:53:22;;;;;;;7.97;6.78;;;;;;;-144.32;100.00;68061.97;10168497;29;20058;-77
2023/09/26 04:58:23;;;;;;;7.53;6.68;;;;;;;-144.32;100.00;68061.97;10174212;29;20411;-75
2023/09/26 05:03:24;;;;;;;7.25;6.00;;;;;;;-144.32;100.00;68061.97;10174875;29;20114;-76
2023/09/26 05:08:24;;;;;;;7.45;6.05;;;;;;;-144.32;100.00;68061.97;10171278;29;20114;-75
2023/09/26 05:13:25;;;;;;;7.55;6.32;;;;;;;-144.32;100.00;68061.97;10169736;29;20051;-78
2023/09/26 05:18:25;;;;;;;7.25;6.32;;;;;;;-144.32;100.00;68061.97;10151170;29;20047;-77
2023/09/26 05:23:26;;;;;;;8.77;6.43;;;;;;;-144.32;100.00;68061.97;10163595;29;20143;-75
2023/09/26 05:28:27;;;;;;;10.02;7.10;;;;;;;-144.32;100.00;68061.97;10171260;29;20527;-76
2023/09/26 05:33:28;;;;;;;8.20;6.50;;;;;;;-144.32;100.00;68061.97;10161017;29;20052;-76
2023/09/26 05:38:29;;;;;;;7.20;6.50;;;;;;;-144.32;100.00;68061.97;10167964;29;20043;-76
2023/09/26 05:43:29;;;;;;;9.10;6.10;;;;;;;-144.32;100.00;68061.97;10163335;29;20816;-76
2023/09/26 05:48:30;;;;;;;6.90;6.20;;;;;;;-144.32;100.00;68061.97;10157202;29;20048;-75
2023/09/26 05:53:31;;;;;;;7.25;6.20;;;;;;;-144.32;100.00;68061.97;10161981;29;20079;-76
2023/09/26 05:58:31;;;;;;;9.30;6.63;;;;;;;-144.32;100.00;68061.97;10180182;29;20048;-77
2023/09/26 06:03:32;;;;;;;7.22;6.18;;;;;;;-144.32;100.00;68061.97;10167724;29;21082;-74
2023/09/26 06:08:34;;;;;;;7.95;7.05;;;;;;;-144.32;100.00;68061.97;10163910;29;20063;-76
2023/09/26 06:13:34;;;;;;;8.85;7.95;;;;;;;-144.32;100.00;68061.97;10173534;29;20048;-75
2023/09/26 06:18:35;;;;;;;9.85;8.05;;;;;;;-144.32;100.00;68061.97;10167102;29;20059;-76
2023/09/26 06:23:36;;;;;;;9.52;7.97;;;;;;;-144.32;100.00;68061.97;10155160;29;20051;-78
2023/09/26 06:28:37;;;;;;;10.02;7.70;;;;;;;-144.32;100.00;68061.97;10186607;29;20055;-77
2023/09/26 06:33:37;;;;;;;7.88;6.25;;;;;;;-144.32;100.00;68061.97;10176327;29;20118;-79
2023/09/26 06:38:40;;;;;;;10.98;8.05;;;;;;;-144.32;100.00;68061.97;10175098;29;20107;-79
2023/09/26 06:43:41;;;;;;;9.10;8.13;;;;;;;-144.32;100.00;68061.97;10160575;29;20048;-78
2023/09/26 06:48:42;;;;;;;9.05;7.50;;;;;;;-144.32;100.00;68061.97;10176645;29;20044;-79
2023/09/26 06:53:42;;;;;;;11.95;8.70;;;;;;;-144.32;100.00;68061.97;10198709;29;20051;-80
2023/09/26 06:58:43;;;;;;;11.15;8.52;;;;;;;-144.32;100.00;68061.97;10187338;29;20068;-79
2023/09/26 07:03:44;;;;;;;9.85;8.68;;;;;;;-144.32;100.00;68061.97;10205172;29;20043;-79
2023/09/26 07:08:45;;;;;;;9.55;8.57;;;;;;;-144.32;100.00;68061.97;10174780;29;20047;-78
2023/09/26 07:13:46;;;;;;;10.63;7.82;;;;;;;-144.32;100.00;68061.97;10171257;28;20066;-77
2023/09/26 07:18:46;;;;;;;10.23;8.32;;;;;;;-144.32;100.00;68061.97;10171892;28;20130;-79
2023/09/26 07:23:47;;;;;;;9.20;7.05;;;;;;;-144.32;100.00;68061.97;10151745;29;20048;-79
2023/09/26 07:28:48;;;;;;;8.98;7.68;;;;;;;-144.32;100.00;68061.97;10182214;29;20051;-78
2023/09/26 07:33:49;;;;;;;10.48;8.23;;;;;;;-144.32;100.00;68061.97;10175943;29;20695;-79
2023/09/26 07:38:50;;;;;;;8.48;7.50;;;;;;;-144.32;100.00;68061.97;10177892;29;20052;-78
2023/09/26 07:43:51;;;;;;;12.05;8.35;;;;;;;-144.32;100.00;68061.97;10173322;29;20044;-79
2023/09/26 07:48:51;;;;;;;11.05;9.02;;;;;;;-144.32;100.00;68061.97;10178317;29;20052;-79
2023/09/26 07:53:52;;;;;;;9.50;8.20;;;;;;;-144.32;100.00;68061.97;10172832;29;20054;-78
2023/09/26 07:58:52;;;;;;;9.20;8.30;;;;;;;-144.32;100.00;68061.97;10174657;29;20039;-79
2023/09/26 08:03:53;;;;;;;10.02;8.75;;;;;;;-144.32;100.00;68061.97;10180260;29;20043;-80
2023/09/26 08:08:53;;;;;;;11.40;8.38;;;;;;;-144.32;100.00;68061.97;10189195;29;20052;-77
2023/09/26 08:13:55;;;;;;;9.70;8.70;;;;;;;-144.32;100.00;68061.97;10190258;29;20138;-79
2023/09/26 08:18:55;;;;;;;11.48;9.68;;;;;;;-144.32;100.00;68061.97;10174930;28;20086;-79
2023/09/26 08:23:56;;;;;;;11.98;9.38;;;;;;;-144.32;100.00;68061.97;10178509;29;20163;-78
2023/09/26 08:28:57;;;;;;;9.10;7.65;;;;;;;-144.32;100.00;68061.97;10174765;29;20099;-78
2023/09/26 08:33:57;;;;;;;8.80;7.43;;;;;;;-144.32;100.00;68061.97;10197241;29;20091;-79
2023/09/26 08:38:59;;;;;;;9.32;8.38;;;;;;;-144.32;100.00;68061.97;10183173;29;20577;-79
2023/09/26 08:44:00;;;;;;;7.60;6.32;;;;;;;-144.32;100.00;68061.97;10171316;29;20077;-78
2023/09/26 08:49:04;;;;;;;9.48;8.45;;;;;;;-144.32;100.00;68061.97;10166558;29;20055;-80
2023/09/26 08:54:05;;;;;;;8.95;7.22;;;;;;;-144.32;100.00;68061.97;10179809;29;20058;-79
2023/09/26 08:59:06;;;;;;;9.90;7.97;;;;;;;-144.32;100.00;68061.97;10179712;28;20051;-79
2023/09/26 09:04:07;;;;;;;9.30;7.40;;;;;;;-144.32;100.00;68061.97;10176023;29;20040;-79
2023/09/26 09:09:13;;;;;;;7.65;6.47;;;;;;;-144.32;100.00;68061.97;10186097;29;20065;-80
2023/09/26 09:14:13;;;;;;;6.25;5.68;;;;;;;-144.32;100.00;68061.97;10186747;29;20115;-79
2023/09/26 09:19:13;;;;;;;6.30;5.70;;;;;;;-144.32;100.00;68061.97;10218756;29;20043;-78
2023/09/26 09:24:16;;;;;;;6.72;6.10;;;;;;;-144.32;100.00;68061.97;10196393;29;20172;-79
2023/09/26 09:29:21;;;;;;;;;;;;;;;-144.32;100.00;68061.97;10184449;29;20108;-79
2023/09/26 09:34:23;;;;;;;7.18;6.13;;;;;;;-144.32;100.00;68061.97;10185923;29;20608;-80
2023/09/26 09:39:24;;;;;;;8.20;7.03;;;;;;;-144.32;100.00;68061.97;10184571;29;20440;-81
2023/09/26 09:44:26;;;;;;;7.28;6.28;;;;;;;-144.32;100.00;68061.97;10182889;29;20047;-78
2023/09/26 09:49:32;;;;;;;8.17;6.80;;;;;;;-144.32;100.00;68061.97;10182792;29;20047;-80
2023/09/26 09:54:34;;;;;;;9.45;7.32;;;;;;;-144.32;100.00;68061.97;10168017;29;20584;-81
2023/09/26 09:59:36;;;;;;;;;;;;;;;-144.32;100.00;68061.97;10182639;29;20048;-79
2023/09/26 10:04:40;;;;;;;9.88;7.22;;;;;;;-144.32;100.00;68061.97;10197848;29;19926;-80
2023/09/26 10:09:42;;;;;;;8.02;6.93;;;;;;;-144.32;100.00;68061.97;10180166;29;20047;-80
2023/09/26 10:14:43;;;;;;;;;;;;;;;-144.32;100.00;68061.97;10178639;29;20059;-80
2023/09/26 10:19:46;;;;;;;9.27;6.47;;;;;;;-144.32;100.00;68061.97;10178302;29;19923;-80
2023/09/26 10:24:51;;;;;;;7.13;6.43;;;;;;;-144.32;100.00;68061.97;10179527;29;20047;-80
2023/09/26 10:29:52;;;;;;;7.18;6.47;;;;;;;-144.32;100.00;68061.97;10145586;29;20147;-81
2023/09/26 10:34:53;;;;;;;8.43;6.82;;;;;;;-144.32;100.00;68061.97;10172160;29;20272;-82
2023/09/26 10:39:54;;;;;;;7.95;5.72;;;;;;;-144.32;100.00;68061.97;10180940;29;20107;-80
2023/09/26 10:44:55;;;;;;;8.70;6.05;;;;;;;-144.32;100.00;68061.97;10190084;29;20055;-81
2023/09/26 10:49:57;;;;;;;7.28;6.50;;;;;;;-144.32;100.00;68061.97;10196353;29;20059;-83
2023/09/26 10:54:58;;;;;;;6.37;5.57;;;;;;;-144.32;100.00;68061.97;10186041;29;20115;-82
2023/09/26 11:00:13;;;;;;;8.57;6.28;;;;;;;-144.32;100.00;68061.97;10165195;29;20044;-80
2023/09/26 11:05:15;;;;;;;8.02;5.88;;;;;;;-144.32;100.00;68061.97;10170815;29;20043;-80
2023/09/26 11:10:16;;;;;;;5.83;5.23;;;;;;;-144.32;100.00;68061.97;10187053;29;20775;-80
2023/09/26 11:15:16;;;;;;;7.30;5.90;;;;;;;-144.32;100.00;68061.97;10169923;29;20052;-82
2023/09/26 11:20:18;;;;;;;6.80;5.60;;;;;;;-144.32;100.00;68061.97;10177843;29;20047;-82
2023/09/26 11:25:18;;;;;;;6.72;5.70;;;;;;;-144.32;100.00;68061.97;10162575;29;20086;-81
2023/09/26 11:30:20;;;;;;;5.97;5.43;;;;;;;-144.32;100.00;68061.97;10195283;29;20051;-80
2023/09/26 11:35:22;;;;;;;8.02;7.22;;;;;;;-144.32;100.00;68061.97;10158752;29;20044;-82
2023/09/26 11:40:27;;;;;;;6.95;6.20;;;;;;;-144.32;100.00;68061.97;10212835;29;20417;-82
2023/09/26 11:45:28;;;;;;;6.85;5.88;;;;;;;-144.32;100.00;68061.97;10178920;29;20464;-81
2023/09/26 11:50:30;;;;;;;6.40;5.40;;;;;;;-144.32;100.00;68061.97;10182734;29;20405;-81
2023/09/26 11:55:31;;;;;;;5.97;5.32;;;;;;;-144.32;100.00;68061.97;10181186;29;20146;-78
2023/09/26 12:00:31;;;;;;;5.32;4.82;;;;;;;-144.32;100.00;68061.97;10165010;29;20049;-78
2023/09/26 12:05:32;;;;;;;5.68;5.18;;;;;;;-144.32;100.00;68061.97;10170424;29;20083;-78
2023/09/26 12:10:33;;;;;;;5.38;4.88;;;;;;;-144.32;100.00;68061.97;10183753;29;20044;-82
2023/09/26 12:15:33;;;;;;;6.03;5.47;;;;;;;-144.32;100.00;68061.97;10173090;29;20072;-78
2023/09/26 12:20:34;;;;;;;7.32;5.10;;;;;;;-144.32;100.00;68061.97;10157552;29;20111;-79
2023/09/26 12:25:35;;;;;;;6.35;5.22;;;;;;;-144.32;100.00;68061.97;10151180;29;21068;-80
2023/09/26 12:30:35;;;;;;;6.00;5.40;;;;;;;-144.32;100.00;68061.97;10170910;29;20058;-81
2023/09/26 12:35:36;;;;;;;6.28;5.65;;;;;;;-144.32;100.00;68061.97;10176840;29;20106;-80
2023/09/26 12:40:37;;;;;;;6.65;5.30;;;;;;;-144.32;100.00;68061.97;10177159;29;20592;-82
2023/09/26 12:45:37;;;;;;;7.60;6.57;;;;;;;-144.32;100.00;68061.97;10178575;29;20150;-81
2023/09/26 12:50:38;;;;;;;5.78;5.05;;;;;;;-144.32;100.00;68061.97;10175396;29;20047;-81
2023/09/26 12:55:38;;;;;;;6.20;5.30;;;;;;;-144.32;100.00;68061.97;10178493;29;20581;-82
2023/09/26 13:00:39;;;;;;;4.43;4.03;;;;;;;-144.32;100.00;68061.97;10175455;29;20051;-79
2023/09/26 13:05:39;;;;;;;5.10;4.60;;;;;;;-144.32;100.00;68061.97;10180338;29;20048;-80
2023/09/26 13:10:41;;;;;;;4.40;4.00;;;;;;;-144.32;100.00;68061.97;10170991;29;20616;-81
2023/09/26 13:15:42;;;;;;;5.75;5.15;;;;;;;-144.32;100.00;68061.97;10218079;29;20060;-81
2023/09/26 13:20:42;;;;;;;6.63;4.97;;;;;;;-144.32;100.00;68061.97;10169989;29;20134;-76
2023/09/26 13:25:43;;;;;;;6.50;4.97;;;;;;;-144.32;100.00;68061.97;10173455;29;20047;-80
2023/09/26 13:30:46;;;;;;;5.47;4.78;;;;;;;-144.32;100.00;68061.97;10175954;29;20296;-81
2023/09/26 13:35:46;;;;;;;5.43;4.40;;;;;;;-144.32;100.00;68061.97;10158204;29;20131;-78
2023/09/26 13:40:48;;;;;;;4.60;4.15;;;;;;;-144.32;100.00;68061.97;10149468;29;20055;-78
2023/09/26 13:45:49;;;;;;;4.97;4.47;;;;;;;-144.32;100.00;68061.97;10184352;29;20048;-80
2023/09/26 13:50:49;;;;;;;5.38;4.80;;;;;;;-144.32;100.00;68061.97;10174474;29;20092;-80
2023/09/26 13:55:50;;;;;;;4.95;4.45;;;;;;;-144.32;100.00;68061.97;10186674;29;20044;-82
2023/09/26 14:00:50;;;;;;;4.68;4.22;;;;;;;-144.32;100.00;68061.97;10188085;29;20088;-81
2023/09/26 14:05:51;;;;;;;4.97;4.10;;;;;;;-144.32;100.00;68061.97;10171528;29;20386;-80
2023/09/26 14:10:51;;;;;;;6.20;5.30;;;;;;;-144.32;100.00;68061.97;10156953;29;20044;-76
2023/09/26 14:15:52;;;;;;;6.30;5.70;;;;;;;-144.32;100.00;68061.97;10174165;29;20052;-80
2023/09/26 14:20:54;;;;;;;5.57;4.65;;;;;;;-144.32;100.00;68061.97;10172034;29;20051;-79
2023/09/26 14:25:58;;;;;;;5.17;4.67;;;;;;;-144.32;100.00;68061.97;10173586;29;20469;-79
2023/09/26 14:30:58;;;;;;;4.75;4.25;;;;;;;-144.32;100.00;68061.97;10174723;29;20053;-78
2023/09/26 14:35:59;;;;;;;5.10;4.07;;;;;;;-144.32;100.00;68061.97;10173008;29;20052;-79
2023/09/26 14:40:59;;;;;;;5.10;4.60;;;;;;;-144.32;100.00;68061.97;10185011;29;20108;-81
2023/09/26 14:46:00;;;;;;;5.28;4.70;;;;;;;-144.32;100.00;68061.97;10180944;29;20071;-83
2023/09/26 14:51:00;;;;;;;5.55;4.85;;;;;;;-144.32;100.00;68061.97;10176397;29;20051;-83
2023/09/26 14:56:02;;;;;;;5.10;4.50;;;;;;;-144.32;100.00;68061.97;10187903;29;20208;-87
2023/09/26 15:01:03;;;;;;;;;;;;;;;-144.32;100.00;68061.97;10180138;29;20043;-86
2023/09/26 15:06:07;;;;;;;4.57;4.17;;;;;;;-144.32;100.00;68061.97;10174984;29;20407;-83
2023/09/26 15:11:07;;;;;;;6.00;4.82;;;;;;;-144.32;100.00;68061.97;10182105;29;20636;-82
2023/09/26 15:16:08;;;;;;;4.82;4.43;;;;;;;-144.32;100.00;68061.97;10175777;29;20076;-83
2023/09/26 15:21:09;;;;;;;6.40;4.78;;;;;;;-144.32;100.00;68061.97;10178509;29;20062;-83
2023/09/26 15:26:12;;;;;;;6.75;4.35;;;;;;;-144.32;100.00;68061.97;10180511;29;20049;-82
2023/09/26 15:31:12;;;;;;;6.43;5.35;;;;;;;-144.32;100.00;68061.97;10204833;29;20032;-83
2023/09/26 15:36:16;;;;;;;6.85;4.95;;;;;;;-144.32;100.00;68061.97;10214192;29;20048;-83
2023/09/26 15:41:20;;;;;;;5.47;4.97;;;;;;;-144.32;100.00;68061.97;10186692;29;20115;-82
2023/09/26 15:46:23;;;;;;;5.28;4.75;;;;;;;-144.32;100.00;68061.97;10183135;29;20055;-82
2023/09/26 15:51:23;;;;;;;8.18;6.40;;;;;;;-144.32;100.00;68061.97;10188279;29;20059;-83
2023/09/26 15:56:24;;;;;;;5.38;4.50;;;;;;;-144.32;100.00;68061.97;10172123;29;20382;-83
2023/09/26 16:01:24;;;;;;;6.18;4.90;;;;;;;-144.32;100.00;68061.97;10199274;29;20055;-85
2023/09/26 16:06:25;;;;;;;7.35;4.90;;;;;;;-144.32;100.00;68061.97;10209149;29;20120;-84
2023/09/26 16:11:25;;;;;;;6.55;5.40;;;;;;;-144.32;100.00;68061.97;10194065;29;20075;-82
2023/09/26 16:16:26;;;;;;;7.55;6.35;;;;;;;-144.32;100.00;68061.97;10204275;29;20040;-82
2023/09/26 16:21:26;;;;;;;5.65;5.03;;;;;;;-144.32;100.00;68061.97;10182197;28;20052;-81
2023/09/26 16:26:27;;;;;;;6.13;5.53;;;;;;;-144.32;100.00;68061.97;10204669;29;20054;-82
2023/09/26 16:31:27;;;;;;;5.50;5.00;;;;;;;-144.32;100.00;68061.97;10207992;28;20054;-84
2023/09/26 16:36:28;;;;;;;7.55;5.72;;;;;;;-144.32;100.00;68061.97;10170326;29;20047;-84
2023/09/26 16:41:29;;;;;;;6.53;5.93;;;;;;;-144.32;100.00;68061.97;10180189;29;20054;-84
2023/09/26 16:46:29;;;;;;;17.73;12.77;;;;;;;-144.32;100.00;68061.97;10175912;29;20103;-84
2023/09/26 16:51:29;;;;;;;9.40;8.10;;;;;;;-144.32;100.00;68061.97;10181175;29;20067;-83
2023/09/26 16:56:30;;;;;;;10.10;7.60;;;;;;;-144.32;100.00;68061.97;10177863;29;20515;-84
2023/09/26 17:01:30;;;;;;;10.98;7.38;;;;;;;-144.32;100.00;68061.97;10168997;29;20074;-83
2023/09/26 17:06:31;;;;;;;11.13;8.40;;;;;;;-144.32;100.00;68061.97;10185553;29;20056;-82
2023/09/26 17:11:31;;;;;;;9.85;8.07;;;;;;;-144.32;100.00;68061.97;10184137;29;20048;-80
2023/09/26 17:16:32;;;;;;;11.63;8.85;;;;;;;-144.32;100.00;68061.97;10174392;29;20568;-79
2023/09/26 17:21:34;;;;;;;9.70;8.10;;;;;;;-144.32;100.00;68061.97;10170881;29;20526;-77
2023/09/26 17:26:34;;;;;;;10.37;7.67;;;;;;;-144.32;100.00;68061.97;10171424;29;20051;-78
2023/09/26 17:31:35;;;;;;;9.70;7.47;;;;;;;-144.32;100.00;68061.97;10174019;29;20095;-80
2023/09/26 17:36:35;;;;;;;9.05;7.32;;;;;;;-144.32;100.00;68061.97;10165656;29;20052;-82
2023/09/26 17:41:36;;;;;;;9.35;7.03;;;;;;;-144.32;100.00;68061.97;10182516;29;20074;-79
2023/09/26 17:46:42;;;;;;;9.43;8.05;;;;;;;-144.32;100.00;68061.97;10176557;29;20481;-78
2023/09/26 17:51:42;;;;;;;16.85;12.63;;;;;;;-144.32;100.00;68061.97;10174349;29;20048;-77
2023/09/26 17:56:43;;;;;;;12.00;10.45;;;;;;;-144.32;100.00;68061.97;10174742;29;20094;-78
2023/09/26 18:01:43;;;;;;;10.32;9.07;;;;;;;-144.32;100.00;68061.97;10174373;29;20106;-78
2023/09/26 18:06:44;;;;;;;14.15;11.43;;;;;;;-144.32;100.00;68061.97;10174507;29;20055;-79
2023/09/26 18:11:44;;;;;;;14.95;12.95;;;;;;;-144.32;100.00;68061.97;10161381;29;20265;-82
2023/09/26 18:16:45;;;;;;;13.98;11.35;;;;;;;-144.32;100.00;68061.97;10216314;29;20049;-80
2023/09/26 18:21:45;;;;;;;14.70;11.45;;;;;;;-144.32;100.00;68061.97;10184131;29;20050;-82
2023/09/26 18:26:46;;;;;;;12.68;10.68;;;;;;;-144.32;100.00;68061.97;10167727;29;20052;-78
2023/09/26 18:31:46;;;;;;;11.38;9.10;;;;;;;-144.32;100.00;68061.97;10181693;29;20049;-79
2023/09/26 18:36:47;;;;;;;12.60;9.68;;;;;;;-144.32;100.00;68061.97;10192480;29;20143;-79
2023/09/26 18:41:47;;;;;;;12.00;10.25;;;;;;;-144.32;100.00;68061.97;10196650;29;20051;-78
2023/09/26 18:46:48;;;;;;;15.00;12.52;;;;;;;-144.32;100.00;68061.97;10192214;29;20043;-82
2023/09/26 18:51:49;;;;;;;11.45;9.90;;;;;;;-144.32;100.00;68061.97;10179584;29;20043;-80
2023/09/26 18:56:50;;;;;;;16.83;11.85;;;;;;;-144.32;100.00;68061.97;10191511;29;20091;-80
2023/09/26 19:01:51;;;;;;;13.00;11.63;;;;;;;-144.32;100.00;68061.97;10174249;29;20119;-80
2023/09/26 19:06:51;;;;;;;15.18;11.98;;;;;;;-144.32;100.00;68061.97;10184716;29;20043;-81
2023/09/26 19:11:54;;;;;;;12.15;10.82;;;;;;;-144.32;100.00;68061.97;10177133;29;20118;-81
2023/09/26 19:16:55;;;;;;;14.55;11.85;;;;;;;-144.32;100.00;68061.97;10176900;29;20052;-82
2023/09/26 19:21:55;;;;;;;13.45;11.20;;;;;;;-144.32;100.00;68061.97;10182494;29;20513;-80
2023/09/26 19:26:57;;;;;;;13.52;11.18;;;;;;;-144.32;100.00;68061.97;10177338;29;20047;-82
2023/09/26 19:32:00;;;;;;;;;;;;;;;-144.32;100.00;68061.97;10185052;29;20889;-81
2023/09/26 19:37:01;;;;;;;17.90;13.45;;;;;;;-144.32;100.00;68061.97;10178036;29;19970;-80
2023/09/26 19:42:04;;;;;;;15.85;13.10;;;;;;;-144.32;100.00;68061.97;10181822;29;20552;-82
2023/09/26 19:47:04;;;;;;;14.50;11.20;;;;;;;-144.32;100.00;68061.97;10174872;29;20058;-80
2023/09/26 19:52:05;;;;;;;17.50;14.05;;;;;;;-144.32;100.00;68061.97;10174660;29;20063;-82
2023/09/26 19:57:05;;;;;;;20.10;14.85;;;;;;;-144.32;100.00;68061.97;10171207;29;20493;-81
2023/09/26 20:02:06;;;;;;;15.38;13.10;;;;;;;-144.32;100.00;68061.97;10166539;29;20116;-81
2023/09/26 20:07:06;;;;;;;15.02;12.80;;;;;;;-144.32;100.00;68061.97;10168320;29;20059;-81
2023/09/26 20:12:06;;;;;;;16.38;12.32;;;;;;;-144.32;100.00;68061.97;10179938;28;20182;-83
2023/09/26 20:17:07;;;;;;;13.65;10.73;;;;;;;-144.32;100.00;68061.97;10188136;29;20051;-84
2023/09/26 20:22:09;;;;;;;15.50;11.48;;;;;;;-144.32;100.00;68061.97;10213928;29;20032;-81
2023/09/26 20:27:10;;;;;;;14.73;11.23;;;;;;;-144.32;100.00;68061.97;10193054;29;20071;-81
2023/09/26 20:32:14;;;;;;;13.82;11.65;;;;;;;-144.32;100.00;68061.97;10183144;29;20048;-78
2023/09/26 20:37:15;;;;;;;15.18;11.77;;;;;;;-144.32;100.00;68061.97;10165639;29;20096;-77
2023/09/26 20:42:16;;;;;;;16.23;12.65;;;;;;;-144.32;100.00;68061.97;10184911;29;20485;-78
2023/09/26 20:47:16;;;;;;;15.05;12.00;;;;;;;-144.32;100.00;68061.97;10179735;29;20040;-78
2023/09/26 20:52:17;;;;;;;15.43;11.50;;;;;;;-144.32;100.00;68061.97;10176435;29;20046;-78
2023/09/26 20:57:17;;;;;;;12.63;10.52;;;;;;;-144.32;100.00;68061.97;10171515;29;20053;-77
2023/09/26 21:02:20;;;;;;;14.82;11.35;;;;;;;-144.32;100.00;68061.97;10167066;29;20044;-76
2023/09/26 21:07:21;;;;;;;14.60;12.02;;;;;;;-144.32;100.00;68061.97;10169152;29;20115;-78
2023/09/26 21:12:21;;;;;;;12.15;10.85;;;;;;;-144.32;100.00;68061.97;10168005;29;20493;-77
2023/09/26 21:17:22;;;;;;;13.93;11.68;;;;;;;-144.32;100.00;68061.97;10167652;29;21098;-77
2023/09/26 21:22:24;;;;;;;12.82;10.93;;;;;;;-144.32;100.00;68061.97;10172971;29;20076;-77
2023/09/26 21:27:24;;;;;;;15.52;11.65;;;;;;;-144.32;100.00;68061.97;10171129;29;20127;-78
2023/09/26 21:32:25;;;;;;;13.95;11.30;;;;;;;-144.32;100.00;68061.97;10167382;29;20573;-78
2023/09/26 21:37:25;;;;;;;14.32;11.75;;;;;;;-144.32;100.00;68061.97;10168730;29;20500;-78
2023/09/26 21:42:26;;;;;;;13.73;11.35;;;;;;;-144.32;100.00;68061.97;10170617;29;20084;-77
2023/09/26 21:47:26;;;;;;;14.75;10.98;;;;;;;-144.32;100.00;68061.97;10182562;29;20413;-77
2023/09/26 21:52:27;;;;;;;12.00;10.00;;;;;;;-144.32;100.00;68061.97;10174489;29;20067;-79
2023/09/26 21:57:27;;;;;;;12.15;10.55;;;;;;;-144.32;100.00;68061.97;10182801;29;20099;-80
2023/09/26 22:02:28;;;;;;;14.55;11.27;;;;;;;-144.32;100.00;68061.97;10181108;29;20055;-79
2023/09/26 22:07:29;;;;;;;15.15;10.90;;;;;;;-144.32;100.00;68061.97;10176460;29;20181;-79
2023/09/26 22:12:30;;;;;;;12.63;10.40;;;;;;;-144.32;100.00;68061.97;10183069;29;20052;-78
2023/09/26 22:17:30;;;;;;;15.98;11.02;;;;;;;-144.32;100.00;68061.97;10180696;29;20223;-78
2023/09/26 22:22:32;;;;;;;13.18;10.27;;;;;;;-144.32;100.00;68061.97;10166085;29;20557;-81
2023/09/26 22:27:34;;;;;;;15.38;10.20;;;;;;;-144.32;100.00;68061.97;10173641;28;20043;-79